Time;durP1;ratioP1;P1;durP2;ratioP2;P2;SDS_P1;SDS_P2;PMS_P1;PMS_P2;Temp;Humidity;BMP_temperature;BMP_pressure;BME280_temperature;BME280_humidity;BME280_pressure;Samples;Min_cycle;Max_cycle;Signal;HPM_P1;HPM_P2
2021/08/15 00:02:00;;;;;;;26.00;24.07;;;;;;;;;;5018994;28;20465;-96
2021/08/15 00:04:27;;;;;;;25.60;23.50;;;;;;;;;;5036183;28;20419;-96
2021/08/15 00:06:56;;;;;;;25.57;23.73;;;;;;;;;;5035513;28;20938;-96
2021/08/15 00:09:23;;;;;;;26.33;24.50;;;;;;;;;;5035872;28;20448;-96
2021/08/15 00:11:51;;;;;;;26.13;24.20;;;;;;;;;;5035772;28;20468;-96
2021/08/15 00:14:19;;;;;;;26.00;24.10;;;;;;;;;;5036124;28;20465;-96
2021/08/15 00:16:46;;;;;;;26.17;24.13;;;;;;;;;;5040537;28;20477;-96
2021/08/15 00:19:13;;;;;;;26.20;24.07;;;;;;;;;;5040984;28;20405;-96
2021/08/15 00:21:41;;;;;;;26.13;23.73;;;;;;;;;;5020145;28;20441;-96
2021/08/15 00:24:10;;;;;;;28.07;25.07;;;;;;;;;;5019521;28;20403;-96
2021/08/15 00:26:37;;;;;;;25.90;24.00;;;;;;;;;;5036469;28;20474;-96
2021/08/15 00:29:05;;;;;;;25.73;23.83;;;;;;;;;;5036723;28;20420;-96
2021/08/15 00:31:34;;;;;;;26.20;24.23;;;;;;;;;;5020013;28;20438;-96
2021/08/15 00:34:01;;;;;;;26.33;24.10;;;;;;;;;;5037584;28;20436;-96
2021/08/15 00:36:29;;;;;;;27.30;24.90;;;;;;;;;;5037898;28;20485;-96
2021/08/15 00:38:56;;;;;;;27.57;25.27;;;;;;;;;;5039178;28;20528;-96
2021/08/15 00:41:26;;;;;;;25.63;23.70;;;;;;;;;;5019355;28;20818;-96
2021/08/15 00:43:56;;;;;;;26.90;24.90;;;;;;;;;;5022573;28;20813;-96
2021/08/15 00:46:24;;;;;;;27.13;24.87;;;;;;;;;;5038890;28;20443;-96
2021/08/15 00:48:51;;;;;;;25.90;23.80;;;;;;;;;;5040280;28;20744;-96
2021/08/15 00:51:19;;;;;;;26.90;24.90;;;;;;;;;;5040788;28;20408;-96
2021/08/15 00:53:46;;;;;;;28.20;25.90;;;;;;;;;;5041185;28;20452;-96
2021/08/15 00:56:14;;;;;;;27.00;24.57;;;;;;;;;;5041654;28;20474;-96
2021/08/15 00:58:43;;;;;;;26.57;24.47;;;;;;;;;;5043871;28;20422;-96
2021/08/15 01:01:11;;;;;;;27.27;24.87;;;;;;;;;;5041795;28;20417;-96
2021/08/15 02:38:40;;;;;;;42.00;31.80;;;;;;;;;;6201711;22;21454;-95
2021/08/15 02:41:08;;;;;;;31.93;29.00;;;;;;;;;;5073612;28;20459;-96
2021/08/15 02:59:08;;;;;;;30.20;27.57;;;;;;;;;;5056684;28;20520;-96
2021/08/15 03:01:35;;;;;;;30.50;27.60;;;;;;;;;;5055507;28;20417;-96
2021/08/15 03:04:03;;;;;;;31.17;28.30;;;;;;;;;;5057494;28;20420;-96
2021/08/15 03:06:30;;;;;;;30.80;28.10;;;;;;;;;;5059744;28;20418;-96
2021/08/15 03:09:00;;;;;;;30.77;28.07;;;;;;;;;;5058420;28;20419;-96
2021/08/15 03:11:27;;;;;;;33.00;29.67;;;;;;;;;;5056650;28;20391;-96
2021/08/15 03:13:55;;;;;;;29.17;26.80;;;;;;;;;;5058099;28;20413;-96
2021/08/15 03:16:24;;;;;;;31.90;29.03;;;;;;;;;;5058149;28;20439;-96
2021/08/15 03:18:51;;;;;;;30.53;27.70;;;;;;;;;;5057991;28;20423;-96
2021/08/15 03:21:19;;;;;;;33.37;30.40;;;;;;;;;;5058072;28;20427;-96
2021/08/15 03:23:46;;;;;;;33.07;29.70;;;;;;;;;;5056571;28;20454;-96
2021/08/15 03:26:14;;;;;;;32.20;29.03;;;;;;;;;;5059248;28;20415;-96
2021/08/15 03:28:43;;;;;;;32.43;29.40;;;;;;;;;;5056274;28;20421;-96
2021/08/15 03:31:10;;;;;;;31.70;28.60;;;;;;;;;;5055090;28;20612;-96
2021/08/15 03:33:41;;;;;;;31.50;28.40;;;;;;;;;;5058292;28;20477;-96
2021/08/15 03:36:09;;;;;;;32.63;29.63;;;;;;;;;;5056931;28;20461;-96
2021/08/15 03:38:36;;;;;;;31.73;28.73;;;;;;;;;;5057747;28;20407;-96
2021/08/15 03:41:04;;;;;;;31.30;28.60;;;;;;;;;;5056800;28;20478;-96
2021/08/15 03:43:32;;;;;;;31.70;28.83;;;;;;;;;;5080542;22;20509;-96
2021/08/15 03:45:59;;;;;;;29.93;27.40;;;;;;;;;;5077467;28;20498;-96
2021/08/15 03:48:27;;;;;;;32.67;29.17;;;;;;;;;;5074392;28;20439;-96
2021/08/15 03:50:56;;;;;;;30.17;27.63;;;;;;;;;;5074842;28;20448;-96
2021/08/15 03:53:24;;;;;;;31.73;28.60;;;;;;;;;;5076201;28;20506;-96
2021/08/15 03:55:53;;;;;;;32.97;29.83;;;;;;;;;;5075332;28;20418;-96
2021/08/15 03:58:21;;;;;;;30.60;27.47;;;;;;;;;;5060523;28;20425;-96
2021/08/15 04:00:48;;;;;;;31.73;28.70;;;;;;;;;;5076450;28;20426;-96
2021/08/15 04:03:16;;;;;;;31.83;29.07;;;;;;;;;;5077535;28;20425;-96
2021/08/15 04:08:21;;;;;;;29.93;27.03;;;;;;;;;;5155242;22;20450;-96
2021/08/15 04:10:48;;;;;;;30.77;28.00;;;;;;;;;;5077041;28;20425;-96
2021/08/15 04:13:16;;;;;;;31.53;28.67;;;;;;;;;;5060336;28;20382;-96
2021/08/15 04:15:43;;;;;;;32.37;29.40;;;;;;;;;;5079097;28;20453;-96
2021/08/15 04:18:11;;;;;;;31.33;28.60;;;;;;;;;;5077965;28;20542;-96
2021/08/15 04:23:04;;;;;;;29.83;27.47;;;;;;;;;;5110179;22;20448;-97
2021/08/15 04:28:13;;;;;;;33.30;28.90;;;;;;;;;;5910514;22;20952;-96
2021/08/15 04:30:40;;;;;;;32.60;29.60;;;;;;;;;;5075965;28;20422;-96
2021/08/15 04:33:08;;;;;;;30.43;27.47;;;;;;;;;;5078368;28;20418;-96
2021/08/15 04:35:35;;;;;;;33.97;30.77;;;;;;;;;;5061136;28;20451;-96
2021/08/15 04:38:03;;;;;;;32.30;28.80;;;;;;;;;;5077947;28;20573;-96
2021/08/15 04:40:30;;;;;;;31.43;28.50;;;;;;;;;;5060010;28;20439;-96
2021/08/15 04:42:58;;;;;;;31.00;28.13;;;;;;;;;;5076825;28;20479;-96
2021/08/15 04:47:59;;;;;;;29.00;26.17;;;;;;;;;;5347367;22;20461;-96
2021/08/15 04:50:26;;;;;;;30.40;27.47;;;;;;;;;;5077347;28;20422;-96
2021/08/15 04:52:54;;;;;;;30.77;27.73;;;;;;;;;;5075613;28;20543;-96
2021/08/15 04:55:21;;;;;;;30.03;27.30;;;;;;;;;;5070104;28;20406;-95
2021/08/15 04:57:49;;;;;;;30.30;27.60;;;;;;;;;;5037212;28;20467;-94
2021/08/15 05:00:16;;;;;;;31.13;28.30;;;;;;;;;;5054588;28;20426;-94
2021/08/15 05:02:44;;;;;;;29.53;26.73;;;;;;;;;;5054255;28;20952;-94
2021/08/15 05:05:13;;;;;;;32.87;29.33;;;;;;;;;;5054733;28;20410;-94
2021/08/15 05:07:41;;;;;;;30.60;27.67;;;;;;;;;;5054683;28;20405;-94
2021/08/15 05:10:09;;;;;;;32.43;29.53;;;;;;;;;;5036619;28;20416;-94
2021/08/15 05:12:36;;;;;;;32.50;29.67;;;;;;;;;;5054448;28;20414;-94
2021/08/15 05:15:04;;;;;;;29.30;26.60;;;;;;;;;;5054470;28;20440;-94
2021/08/15 05:17:31;;;;;;;30.67;27.90;;;;;;;;;;5053970;28;20487;-94
2021/08/15 05:19:58;;;;;;;30.63;27.87;;;;;;;;;;5054174;28;20413;-94
2021/08/15 05:22:27;;;;;;;31.30;28.10;;;;;;;;;;5054472;28;20411;-94
2021/08/15 05:24:54;;;;;;;32.57;29.87;;;;;;;;;;5053967;28;20411;-94
2021/08/15 05:27:22;;;;;;;32.97;28.80;;;;;;;;;;5054415;28;20454;-94
2021/08/15 05:29:49;;;;;;;32.20;29.30;;;;;;;;;;5053968;28;20446;-94
2021/08/15 05:32:17;;;;;;;30.07;27.13;;;;;;;;;;5036587;28;20491;-93
2021/08/15 05:34:44;;;;;;;33.23;29.80;;;;;;;;;;5054214;28;20432;-94
2021/08/15 05:37:11;;;;;;;30.53;27.73;;;;;;;;;;5053901;28;20442;-93
2021/08/15 05:39:40;;;;;;;32.63;29.43;;;;;;;;;;5054577;28;20421;-93
2021/08/15 05:42:08;;;;;;;31.03;28.23;;;;;;;;;;5053105;28;20451;-94
2021/08/15 05:44:35;;;;;;;31.40;28.67;;;;;;;;;;5053810;28;20411;-94
2021/08/15 05:47:04;;;;;;;29.27;26.63;;;;;;;;;;5054501;28;20498;-94
2021/08/15 05:49:31;;;;;;;30.90;27.90;;;;;;;;;;5053765;28;20432;-92
2021/08/15 05:51:59;;;;;;;30.83;28.03;;;;;;;;;;5053847;28;20451;-94
2021/08/15 05:54:26;;;;;;;29.57;27.10;;;;;;;;;;5053845;28;20437;-93
2021/08/15 05:56:55;;;;;;;31.27;28.27;;;;;;;;;;5036537;28;20527;-93
2021/08/15 05:59:22;;;;;;;31.93;28.63;;;;;;;;;;5054662;28;20418;-89
2021/08/15 06:01:50;;;;;;;31.80;28.90;;;;;;;;;;5054186;28;20440;-93
2021/08/15 06:04:17;;;;;;;31.23;28.50;;;;;;;;;;5054296;28;20421;-93
2021/08/15 06:06:45;;;;;;;31.57;28.43;;;;;;;;;;5053962;28;20412;-92
2021/08/15 06:09:13;;;;;;;32.33;29.37;;;;;;;;;;5054048;28;20437;-92
2021/08/15 06:11:40;;;;;;;31.43;28.70;;;;;;;;;;5053797;28;20772;-90
2021/08/15 06:14:09;;;;;;;31.43;28.53;;;;;;;;;;5053759;28;20414;-91
2021/08/15 06:16:37;;;;;;;31.83;28.97;;;;;;;;;;5036005;28;20436;-91
2021/08/15 06:19:04;;;;;;;31.30;28.50;;;;;;;;;;5053984;28;20455;-91
2021/08/15 06:21:32;;;;;;;32.63;29.13;;;;;;;;;;5053830;28;20789;-91
2021/08/15 06:23:59;;;;;;;31.60;28.60;;;;;;;;;;5053814;28;20437;-91
2021/08/15 06:26:28;;;;;;;30.60;27.93;;;;;;;;;;5053929;28;20408;-91
2021/08/15 06:28:56;;;;;;;31.83;28.70;;;;;;;;;;5036259;28;20475;-91
2021/08/15 06:31:25;;;;;;;32.07;29.10;;;;;;;;;;5053844;28;20419;-96
2021/08/15 06:33:53;;;;;;;32.73;29.83;;;;;;;;;;5053539;28;20443;-95
2021/08/15 06:36:20;;;;;;;32.53;29.57;;;;;;;;;;5054099;28;20453;-96
2021/08/15 06:38:48;;;;;;;33.90;30.70;;;;;;;;;;5057164;28;20494;-96
2021/08/15 06:41:15;;;;;;;32.10;29.13;;;;;;;;;;5056757;28;20448;-96
2021/08/15 06:43:43;;;;;;;33.40;30.23;;;;;;;;;;5056986;28;20410;-95
2021/08/15 06:46:10;;;;;;;33.57;30.77;;;;;;;;;;5058550;28;20437;-96
2021/08/15 06:48:39;;;;;;;32.77;29.87;;;;;;;;;;5067454;28;20495;-96
2021/08/15 06:51:07;;;;;;;34.63;31.00;;;;;;;;;;5059434;28;20441;-96
2021/08/15 06:53:38;;;;;;;32.17;29.10;;;;;;;;;;5058983;28;20456;-96
2021/08/15 06:56:08;;;;;;;32.70;29.80;;;;;;;;;;5066659;28;20452;-96
2021/08/15 06:58:36;;;;;;;34.27;30.60;;;;;;;;;;5070183;28;20480;-96
2021/08/15 07:01:03;;;;;;;34.20;30.73;;;;;;;;;;5061503;28;20434;-96
2021/08/15 07:03:31;;;;;;;33.63;30.20;;;;;;;;;;5043312;28;20470;-95
2021/08/15 07:06:00;;;;;;;33.27;30.07;;;;;;;;;;5057509;28;20904;-96
2021/08/15 07:08:28;;;;;;;31.93;29.40;;;;;;;;;;5056898;28;20949;-96
2021/08/15 07:10:55;;;;;;;33.10;30.17;;;;;;;;;;5056505;28;20432;-96
2021/08/15 07:13:23;;;;;;;33.37;30.37;;;;;;;;;;5038729;28;20422;-96
2021/08/15 07:15:51;;;;;;;32.27;29.67;;;;;;;;;;5056316;28;20535;-96
2021/08/15 07:18:19;;;;;;;31.30;28.50;;;;;;;;;;5056579;28;20553;-96
2021/08/15 07:20:47;;;;;;;34.20;30.93;;;;;;;;;;5038759;28;20424;-96
2021/08/15 07:23:16;;;;;;;33.83;30.63;;;;;;;;;;5056263;28;20448;-96
2021/08/15 07:25:44;;;;;;;31.27;28.30;;;;;;;;;;5056889;28;20516;-96
2021/08/15 07:28:11;;;;;;;34.07;30.73;;;;;;;;;;5039182;28;20452;-96
2021/08/15 07:30:38;;;;;;;32.67;29.57;;;;;;;;;;5056253;28;20495;-96
2021/08/15 07:33:06;;;;;;;33.07;30.07;;;;;;;;;;5056040;28;20461;-96
2021/08/15 07:35:36;;;;;;;31.43;28.80;;;;;;;;;;5056371;28;20894;-95
2021/08/15 07:38:04;;;;;;;32.80;29.77;;;;;;;;;;5055819;28;20505;-94
2021/08/15 07:40:33;;;;;;;32.90;29.87;;;;;;;;;;5055854;28;20468;-94
2021/08/15 07:43:00;;;;;;;33.37;30.63;;;;;;;;;;5056034;28;20423;-95
2021/08/15 07:45:29;;;;;;;32.90;30.07;;;;;;;;;;5056383;28;20467;-96
2021/08/15 07:47:57;;;;;;;34.37;31.40;;;;;;;;;;5042528;28;20446;-96
2021/08/15 07:50:26;;;;;;;35.00;31.30;;;;;;;;;;5075485;28;20389;-96
2021/08/15 07:52:54;;;;;;;33.47;30.47;;;;;;;;;;5058357;28;20479;-96
2021/08/15 07:55:21;;;;;;;33.97;30.70;;;;;;;;;;5057014;28;20403;-94
2021/08/15 07:57:50;;;;;;;33.70;30.57;;;;;;;;;;5038712;28;20496;-95
2021/08/15 08:00:17;;;;;;;33.17;30.33;;;;;;;;;;5056055;28;20409;-96
2021/08/15 08:02:45;;;;;;;31.80;29.30;;;;;;;;;;5055945;28;20972;-93
2021/08/15 08:05:13;;;;;;;33.40;30.53;;;;;;;;;;5056497;28;20777;-96
2021/08/15 08:07:40;;;;;;;33.03;30.33;;;;;;;;;;5059038;28;20446;-96
2021/08/15 08:10:08;;;;;;;32.20;29.67;;;;;;;;;;5058199;28;20441;-96
2021/08/15 08:12:35;;;;;;;33.30;30.43;;;;;;;;;;5066794;28;20417;-96
2021/08/15 08:15:04;;;;;;;32.10;29.50;;;;;;;;;;5062164;28;20434;-95
2021/08/15 08:17:32;;;;;;;31.33;28.83;;;;;;;;;;5056818;28;20477;-96
2021/08/15 08:19:59;;;;;;;31.00;28.53;;;;;;;;;;5058763;28;20448;-96
2021/08/15 08:22:27;;;;;;;29.20;26.60;;;;;;;;;;5061534;28;20460;-96
2021/08/15 08:24:54;;;;;;;32.10;29.43;;;;;;;;;;5056364;28;20428;-96
2021/08/15 08:27:22;;;;;;;30.50;28.00;;;;;;;;;;5039807;28;20420;-96
2021/08/15 08:29:50;;;;;;;30.50;27.80;;;;;;;;;;5040953;28;20421;-96
2021/08/15 08:32:19;;;;;;;31.07;28.23;;;;;;;;;;5058115;28;20441;-96
2021/08/15 08:34:46;;;;;;;32.47;29.43;;;;;;;;;;5058975;28;20462;-96
2021/08/15 08:37:14;;;;;;;31.40;28.83;;;;;;;;;;5038868;28;20415;-96
2021/08/15 08:39:41;;;;;;;30.17;27.67;;;;;;;;;;5036924;28;20443;-96
2021/08/15 08:42:09;;;;;;;30.57;27.80;;;;;;;;;;5037400;28;20419;-96
2021/08/15 08:44:37;;;;;;;31.50;28.90;;;;;;;;;;5054721;28;20412;-96
2021/08/15 08:47:06;;;;;;;30.00;27.53;;;;;;;;;;5054368;28;20455;-96
2021/08/15 08:49:35;;;;;;;30.23;27.73;;;;;;;;;;5054768;28;20409;-96
2021/08/15 08:52:03;;;;;;;29.70;27.30;;;;;;;;;;5057992;28;20512;-96
2021/08/15 08:54:30;;;;;;;29.23;26.87;;;;;;;;;;5055490;28;20445;-92
2021/08/15 08:56:58;;;;;;;31.20;28.37;;;;;;;;;;5054534;28;20452;-93
2021/08/15 08:59:25;;;;;;;29.23;26.73;;;;;;;;;;5053540;28;20480;-93
2021/08/15 09:01:53;;;;;;;30.97;28.27;;;;;;;;;;5054703;28;20457;-93
2021/08/15 09:04:21;;;;;;;29.30;27.10;;;;;;;;;;5054645;28;20454;-94
2021/08/15 09:06:50;;;;;;;30.03;27.77;;;;;;;;;;5054585;28;20453;-93
2021/08/15 09:09:18;;;;;;;29.57;27.23;;;;;;;;;;5054225;28;20424;-93
2021/08/15 09:11:47;;;;;;;28.33;25.93;;;;;;;;;;5056265;28;20416;-93
2021/08/15 09:14:15;;;;;;;26.80;24.90;;;;;;;;;;5037173;28;20926;-92
2021/08/15 09:16:57;;;;;;;30.00;27.63;;;;;;;;;;5056374;28;20447;-92
2021/08/15 09:19:26;;;;;;;28.53;26.10;;;;;;;;;;5054943;28;20489;-93
2021/08/15 09:21:56;;;;;;;28.17;25.70;;;;;;;;;;5054389;28;20450;-94
2021/08/15 09:24:24;;;;;;;28.33;26.30;;;;;;;;;;5054696;28;20424;-93
2021/08/15 09:26:58;;;;;;;26.90;24.70;;;;;;;;;;5054404;28;20782;-93
2021/08/15 09:29:26;;;;;;;27.03;24.80;;;;;;;;;;5055693;28;20448;-92
2021/08/15 09:31:55;;;;;;;27.13;25.10;;;;;;;;;;5054765;28;20796;-91
2021/08/15 09:34:27;;;;;;;27.80;25.57;;;;;;;;;;5037961;28;20958;-93
2021/08/15 09:36:56;;;;;;;28.17;25.73;;;;;;;;;;5054312;28;20410;-95
2021/08/15 09:39:34;;;;;;;26.90;24.70;;;;;;;;;;5055666;28;20500;-95
2021/08/15 09:42:02;;;;;;;28.23;25.60;;;;;;;;;;5056059;28;20436;-95
2021/08/15 09:44:30;;;;;;;26.97;24.90;;;;;;;;;;5055572;28;20445;-95
2021/08/15 09:46:58;;;;;;;27.47;25.20;;;;;;;;;;5038594;28;20453;-96
2021/08/15 09:49:32;;;;;;;26.30;24.40;;;;;;;;;;5055520;28;20426;-95
2021/08/15 09:52:01;;;;;;;26.67;24.47;;;;;;;;;;5054836;28;20446;-95
2021/08/15 09:54:29;;;;;;;25.40;23.40;;;;;;;;;;5055713;28;20911;-90
2021/08/15 09:56:57;;;;;;;23.83;21.70;;;;;;;;;;5055299;28;20773;-89
2021/08/15 09:59:25;;;;;;;23.17;21.47;;;;;;;;;;5054608;28;20463;-87
2021/08/15 10:01:53;;;;;;;23.60;21.87;;;;;;;;;;5054674;28;20445;-87
2021/08/15 10:04:21;;;;;;;23.93;22.20;;;;;;;;;;5053150;28;20462;-87
2021/08/15 10:06:50;;;;;;;26.07;23.93;;;;;;;;;;5054162;28;20424;-92
2021/08/15 10:09:20;;;;;;;23.23;21.77;;;;;;;;;;5056934;28;20465;-96
2021/08/15 10:11:47;;;;;;;23.50;21.77;;;;;;;;;;5057684;28;20515;-89
2021/08/15 10:14:15;;;;;;;23.90;22.27;;;;;;;;;;5058723;28;20470;-90
2021/08/15 10:16:45;;;;;;;24.87;23.27;;;;;;;;;;5058320;28;20413;-90
2021/08/15 10:19:13;;;;;;;24.27;22.40;;;;;;;;;;5057580;28;21029;-89
2021/08/15 10:21:42;;;;;;;25.03;23.17;;;;;;;;;;5057942;28;20853;-89
2021/08/15 10:24:10;;;;;;;25.30;23.40;;;;;;;;;;5057727;28;20433;-90
2021/08/15 10:26:43;;;;;;;24.27;22.30;;;;;;;;;;5039898;28;20856;-89
2021/08/15 10:29:25;;;;;;;23.50;21.90;;;;;;;;;;5057249;28;20439;-89
2021/08/15 10:32:13;;;;;;;23.27;21.63;;;;;;;;;;5045083;28;20452;-89
2021/08/15 10:35:04;;;;;;;23.53;22.03;;;;;;;;;;5039524;28;20439;-90
2021/08/15 10:37:35;;;;;;;23.03;21.53;;;;;;;;;;5047153;28;20457;-90
2021/08/15 10:40:03;;;;;;;23.20;21.70;;;;;;;;;;5057364;28;20471;-90
2021/08/15 10:42:48;;;;;;;23.23;21.90;;;;;;;;;;5057186;28;20426;-90
2021/08/15 10:45:24;;;;;;;23.80;22.10;;;;;;;;;;5057418;28;20438;-90
2021/08/15 10:48:11;;;;;;;23.80;22.23;;;;;;;;;;5057518;28;20570;-89
2021/08/15 10:50:43;;;;;;;22.20;20.80;;;;;;;;;;5057099;28;20493;-89
2021/08/15 10:53:25;;;;;;;22.00;20.50;;;;;;;;;;5056987;28;20441;-90
2021/08/15 10:55:52;;;;;;;22.17;20.70;;;;;;;;;;5055994;28;20420;-89
2021/08/15 11:01:13;;;;;;;22.30;20.60;;;;;;;;;;5099323;27;1570798;-89
2021/08/15 11:03:56;;;;;;;21.50;20.20;;;;;;;;;;5132692;28;20703;-89
2021/08/15 11:06:48;;;;;;;21.93;20.27;;;;;;;;;;5132531;28;20516;-90
2021/08/15 11:09:16;;;;;;;22.07;20.70;;;;;;;;;;5132603;28;20402;-90
2021/08/15 11:12:02;;;;;;;22.63;21.23;;;;;;;;;;5132411;28;20435;-89
2021/08/15 11:14:30;;;;;;;21.20;20.00;;;;;;;;;;5132670;28;20811;-89
2021/08/15 11:17:11;;;;;;;21.30;20.00;;;;;;;;;;5132932;28;20442;-90
2021/08/15 11:19:39;;;;;;;21.30;20.10;;;;;;;;;;5132991;28;20517;-89
2021/08/15 11:22:09;;;;;;;21.90;20.40;;;;;;;;;;5132769;28;20427;-89
2021/08/15 11:24:37;;;;;;;22.33;20.93;;;;;;;;;;5132934;28;20447;-89
2021/08/15 11:27:05;;;;;;;21.80;20.37;;;;;;;;;;5132877;28;20414;-90
2021/08/15 11:29:33;;;;;;;21.57;20.20;;;;;;;;;;5114723;28;20450;-90
2021/08/15 11:32:02;;;;;;;22.23;20.83;;;;;;;;;;5132350;28;20447;-89
2021/08/15 11:34:30;;;;;;;22.03;20.73;;;;;;;;;;5132010;28;20902;-90
2021/08/15 11:36:58;;;;;;;22.00;20.60;;;;;;;;;;5132170;28;20409;-90
2021/08/15 11:39:33;;;;;;;22.87;21.23;;;;;;;;;;5132004;28;20473;-90
2021/08/15 11:42:01;;;;;;;21.70;20.20;;;;;;;;;;5131953;28;20435;-90
2021/08/15 11:44:44;;;;;;;22.50;20.90;;;;;;;;;;5131750;28;20461;-90
2021/08/15 11:47:19;;;;;;;22.40;21.10;;;;;;;;;;5131657;28;20417;-90
2021/08/15 11:49:47;;;;;;;23.47;21.63;;;;;;;;;;5131892;28;20431;-90
2021/08/15 11:52:15;;;;;;;23.43;21.93;;;;;;;;;;5113660;28;20436;-90
2021/08/15 11:54:42;;;;;;;22.43;21.10;;;;;;;;;;5131896;28;20423;-90
2021/08/15 11:57:12;;;;;;;22.03;20.60;;;;;;;;;;5132198;28;20431;-90
2021/08/15 11:59:41;;;;;;;21.80;20.50;;;;;;;;;;5131587;28;20904;-90
2021/08/15 12:02:15;;;;;;;21.43;20.00;;;;;;;;;;5132633;28;20406;-90
2021/08/15 12:04:44;;;;;;;21.73;20.30;;;;;;;;;;5131529;28;20435;-88
2021/08/15 12:07:12;;;;;;;21.40;20.00;;;;;;;;;;5131738;28;20432;-90
2021/08/15 12:09:39;;;;;;;20.77;19.27;;;;;;;;;;5131625;28;20436;-90
2021/08/15 12:12:08;;;;;;;21.83;20.20;;;;;;;;;;5120176;28;20911;-90
2021/08/15 12:14:36;;;;;;;21.57;20.13;;;;;;;;;;5117544;28;20912;-89
2021/08/15 12:17:03;;;;;;;21.77;20.37;;;;;;;;;;5117442;28;20407;-88
2021/08/15 12:19:32;;;;;;;21.20;20.00;;;;;;;;;;5117829;28;20498;-88
2021/08/15 12:22:02;;;;;;;21.60;20.00;;;;;;;;;;5117548;28;20843;-89
2021/08/15 12:24:30;;;;;;;22.13;20.73;;;;;;;;;;5117675;28;20432;-88
2021/08/15 12:26:59;;;;;;;22.73;21.07;;;;;;;;;;5099618;28;20452;-94
2021/08/15 12:29:29;;;;;;;23.27;21.77;;;;;;;;;;5117688;28;20437;-90
2021/08/15 12:32:03;;;;;;;22.53;21.13;;;;;;;;;;5117523;28;20528;-91
2021/08/15 12:34:31;;;;;;;22.27;20.77;;;;;;;;;;5099627;28;20414;-89
2021/08/15 12:37:00;;;;;;;23.00;21.60;;;;;;;;;;5117568;28;20432;-90
2021/08/15 12:39:30;;;;;;;23.00;21.37;;;;;;;;;;5117252;28;20459;-91
2021/08/15 12:41:58;;;;;;;22.57;21.27;;;;;;;;;;5116850;28;20884;-91
2021/08/15 12:44:27;;;;;;;22.27;20.87;;;;;;;;;;5117924;28;20436;-93
2021/08/15 12:47:03;;;;;;;22.10;20.73;;;;;;;;;;5117317;28;20443;-95
2021/08/15 12:49:33;;;;;;;22.77;21.27;;;;;;;;;;5117523;28;20444;-95
2021/08/15 12:52:11;;;;;;;22.00;20.70;;;;;;;;;;5117434;28;20456;-96
2021/08/15 12:54:53;;;;;;;21.40;20.10;;;;;;;;;;5083147;28;20418;-96
2021/08/15 12:57:22;;;;;;;21.63;20.30;;;;;;;;;;5116007;28;20444;-89
2021/08/15 12:59:49;;;;;;;23.07;21.67;;;;;;;;;;5116470;28;20494;-91
2021/08/15 13:02:17;;;;;;;21.50;20.10;;;;;;;;;;5098758;28;20522;-89
2021/08/15 13:04:44;;;;;;;21.80;20.40;;;;;;;;;;5116572;28;20440;-88
2021/08/15 13:07:12;;;;;;;21.17;19.90;;;;;;;;;;5116948;28;20898;-89
2021/08/15 13:09:39;;;;;;;23.17;21.67;;;;;;;;;;5116698;28;20411;-87
2021/08/15 13:12:06;;;;;;;22.40;21.00;;;;;;;;;;5116308;28;20442;-89
2021/08/15 13:14:35;;;;;;;22.10;20.77;;;;;;;;;;5116738;28;20448;-89
2021/08/15 13:17:03;;;;;;;22.40;20.97;;;;;;;;;;5117386;28;20445;-88
2021/08/15 13:19:30;;;;;;;21.83;20.40;;;;;;;;;;5116537;28;20437;-88
2021/08/15 13:21:57;;;;;;;21.87;20.47;;;;;;;;;;5116537;28;20796;-90
2021/08/15 13:24:25;;;;;;;22.27;20.83;;;;;;;;;;5115522;28;20457;-90
2021/08/15 13:26:52;;;;;;;22.30;20.90;;;;;;;;;;5116410;28;20983;-90
2021/08/15 13:29:20;;;;;;;22.23;20.90;;;;;;;;;;5098100;28;20416;-91
2021/08/15 13:31:49;;;;;;;22.70;21.40;;;;;;;;;;5098447;28;20426;-91
2021/08/15 13:34:16;;;;;;;22.07;20.47;;;;;;;;;;5116860;28;20477;-91
2021/08/15 13:36:44;;;;;;;22.67;21.20;;;;;;;;;;5116602;28;20438;-91
2021/08/15 13:39:11;;;;;;;21.47;20.07;;;;;;;;;;5116081;28;20455;-91
2021/08/15 13:41:39;;;;;;;22.03;20.80;;;;;;;;;;5116063;28;20457;-91
2021/08/15 13:44:06;;;;;;;20.80;19.60;;;;;;;;;;5098044;28;20426;-92
2021/08/15 13:46:34;;;;;;;22.83;21.40;;;;;;;;;;5116237;28;20443;-91
2021/08/15 13:49:03;;;;;;;21.27;19.93;;;;;;;;;;5115681;28;20433;-91
2021/08/15 13:51:31;;;;;;;22.60;21.17;;;;;;;;;;5115998;28;20448;-91
2021/08/15 13:54:00;;;;;;;22.20;20.90;;;;;;;;;;5116189;28;20399;-91
2021/08/15 13:56:27;;;;;;;21.63;20.33;;;;;;;;;;5115512;28;20427;-90
2021/08/15 13:58:55;;;;;;;21.73;20.43;;;;;;;;;;5115344;28;20410;-91
2021/08/15 14:01:22;;;;;;;21.70;20.47;;;;;;;;;;5115234;28;20850;-91
2021/08/15 14:03:50;;;;;;;22.50;21.10;;;;;;;;;;5115678;28;20406;-91
2021/08/15 14:06:18;;;;;;;22.17;20.53;;;;;;;;;;5115738;28;20427;-91
2021/08/15 14:08:46;;;;;;;22.63;21.10;;;;;;;;;;5115647;28;20408;-92
2021/08/15 14:11:13;;;;;;;21.47;20.27;;;;;;;;;;5115203;28;20427;-91
2021/08/15 14:13:41;;;;;;;21.80;20.50;;;;;;;;;;5097473;28;20925;-91
2021/08/15 14:16:08;;;;;;;22.40;21.00;;;;;;;;;;5097441;28;20441;-91
2021/08/15 14:18:36;;;;;;;22.23;20.83;;;;;;;;;;5115171;28;20411;-91
2021/08/15 14:21:03;;;;;;;22.80;21.40;;;;;;;;;;5115026;28;20998;-90
2021/08/15 14:23:32;;;;;;;21.97;20.67;;;;;;;;;;5101238;28;20413;-91
2021/08/15 14:25:59;;;;;;;21.70;20.40;;;;;;;;;;5094848;28;20423;-91
2021/08/15 14:28:27;;;;;;;23.30;21.47;;;;;;;;;;5094953;28;20416;-92
2021/08/15 14:30:54;;;;;;;22.77;21.37;;;;;;;;;;5094595;28;20439;-90
2021/08/15 14:33:25;;;;;;;23.40;22.00;;;;;;;;;;5094884;28;20466;-92
2021/08/15 14:35:52;;;;;;;23.70;22.10;;;;;;;;;;5093962;28;20959;-91
2021/08/15 14:38:20;;;;;;;22.47;21.07;;;;;;;;;;5094500;28;20486;-92
2021/08/15 14:40:49;;;;;;;22.27;20.87;;;;;;;;;;5094463;28;20987;-91
2021/08/15 14:43:16;;;;;;;22.20;20.70;;;;;;;;;;5094654;28;20930;-91
2021/08/15 14:45:43;;;;;;;22.60;21.17;;;;;;;;;;5094692;28;20767;-91
2021/08/15 14:48:13;;;;;;;23.90;22.30;;;;;;;;;;5094712;28;20811;-92
2021/08/15 14:50:40;;;;;;;22.57;21.17;;;;;;;;;;5094754;28;20468;-90
2021/08/15 14:53:08;;;;;;;23.00;21.50;;;;;;;;;;5094347;28;20432;-91
2021/08/15 14:55:35;;;;;;;23.17;21.77;;;;;;;;;;5095316;28;20938;-91
2021/08/15 14:58:05;;;;;;;22.40;21.00;;;;;;;;;;5076732;28;20416;-92
2021/08/15 15:00:32;;;;;;;23.60;21.93;;;;;;;;;;5094070;28;20490;-91
2021/08/15 15:03:00;;;;;;;24.33;22.60;;;;;;;;;;5094648;28;20447;-91
2021/08/15 15:05:27;;;;;;;23.23;21.83;;;;;;;;;;5094166;28;20442;-92
2021/08/15 15:07:55;;;;;;;23.40;22.00;;;;;;;;;;5076746;28;20926;-90
2021/08/15 15:10:23;;;;;;;23.20;21.77;;;;;;;;;;5094416;28;20495;-91
2021/08/15 15:12:50;;;;;;;23.90;22.20;;;;;;;;;;5094425;28;20441;-91
2021/08/15 15:15:19;;;;;;;23.00;21.57;;;;;;;;;;5094873;28;20455;-91
2021/08/15 15:17:48;;;;;;;23.47;22.07;;;;;;;;;;5094449;28;20418;-91
2021/08/15 15:20:16;;;;;;;24.50;22.30;;;;;;;;;;5093789;28;20447;-92
2021/08/15 15:22:45;;;;;;;23.60;22.10;;;;;;;;;;5093997;28;20444;-91
2021/08/15 15:25:13;;;;;;;23.90;22.50;;;;;;;;;;5094633;28;20802;-91
2021/08/15 15:27:41;;;;;;;24.63;22.87;;;;;;;;;;5094199;28;20444;-91
2021/08/15 15:30:08;;;;;;;23.73;22.40;;;;;;;;;;5094221;28;20429;-91
2021/08/15 15:32:38;;;;;;;24.57;23.07;;;;;;;;;;5094264;28;20492;-91
2021/08/15 15:35:05;;;;;;;24.40;23.10;;;;;;;;;;5094030;28;20434;-91
2021/08/15 15:37:35;;;;;;;25.20;23.70;;;;;;;;;;5093756;28;20471;-91
2021/08/15 15:40:02;;;;;;;23.33;22.13;;;;;;;;;;5094169;28;20407;-91
2021/08/15 15:42:29;;;;;;;23.90;22.60;;;;;;;;;;5094042;28;20451;-91
2021/08/15 15:44:57;;;;;;;23.40;22.03;;;;;;;;;;5093785;28;20428;-91
2021/08/15 15:47:25;;;;;;;24.37;22.87;;;;;;;;;;5096518;28;20446;-92
2021/08/15 15:49:53;;;;;;;24.13;22.63;;;;;;;;;;5097703;28;20433;-91
2021/08/15 15:52:22;;;;;;;25.10;23.50;;;;;;;;;;5103958;28;20438;-91
2021/08/15 15:54:49;;;;;;;24.90;22.40;;;;;;;;;;5101308;28;20456;-91
2021/08/15 15:57:17;;;;;;;24.17;22.67;;;;;;;;;;5100735;28;20431;-91
2021/08/15 15:59:44;;;;;;;24.33;22.93;;;;;;;;;;5103428;28;20452;-90
2021/08/15 16:02:12;;;;;;;24.43;23.03;;;;;;;;;;5102852;28;20487;-91
2021/08/15 16:04:40;;;;;;;23.53;22.17;;;;;;;;;;5101622;28;20793;-90
2021/08/15 16:07:10;;;;;;;24.50;23.00;;;;;;;;;;5104014;28;20424;-89
2021/08/15 16:09:37;;;;;;;23.77;22.27;;;;;;;;;;5102004;28;20431;-91
2021/08/15 16:12:05;;;;;;;23.53;22.17;;;;;;;;;;5114746;28;20927;-91
2021/08/15 16:14:32;;;;;;;24.50;22.90;;;;;;;;;;5117766;28;20442;-91
2021/08/15 16:17:00;;;;;;;24.93;23.23;;;;;;;;;;5117757;28;20436;-90
2021/08/15 16:19:27;;;;;;;23.50;22.03;;;;;;;;;;5117816;28;20413;-91
2021/08/15 16:21:55;;;;;;;24.03;22.50;;;;;;;;;;5117822;28;20461;-90
2021/08/15 16:24:24;;;;;;;23.97;22.57;;;;;;;;;;5117450;28;20447;-91
2021/08/15 16:26:51;;;;;;;24.93;23.20;;;;;;;;;;5099776;28;20919;-88
2021/08/15 16:29:19;;;;;;;25.70;24.00;;;;;;;;;;5117391;28;20408;-90